Time;durP1;ratioP1;P1;durP2;ratioP2;P2;SDS_P1;SDS_P2;PMS_P1;PMS_P2;Temp;Humidity;BMP_temperature;BMP_pressure;BME280_temperature;BME280_humidity;BME280_pressure;Samples;Min_cycle;Max_cycle;Signal;HPM_P1;HPM_P2
2021/12/28 00:01:14;;;;;;;28.27;15.07;;;-2.00;99.90;-2.50;99394.00;;;;5027910;27;88101;-66
2021/12/28 00:03:43;;;;;;;22.77;14.63;;;-2.10;99.90;-2.50;99401.00;;;;5040929;27;105434;-65
2021/12/28 00:06:10;;;;;;;34.60;15.43;;;-2.10;99.90;-2.50;99389.00;;;;5055719;27;87746;-66
2021/12/28 00:08:36;;;;;;;26.17;15.33;;;-2.10;99.90;-2.50;99393.00;;;;5054911;27;93169;-65
2021/12/28 00:11:04;;;;;;;24.50;15.00;;;-2.10;99.90;-2.50;99386.00;;;;5027265;27;103219;-65
2021/12/28 00:13:33;;;;;;;21.07;14.17;;;-1.20;99.90;-2.50;99386.00;;;;5034815;27;106200;-66
2021/12/28 00:18:31;;;;;;;23.67;14.13;;;-2.10;99.90;-2.50;99398.00;;;;5034075;27;87549;-66
2021/12/28 00:21:00;;;;;;;27.53;14.63;;;-2.20;99.90;-2.60;99391.00;;;;5025000;27;118786;-65
2021/12/28 00:23:33;;;;;;;24.73;13.90;;;-2.20;99.90;-2.60;99385.00;;;;5048210;27;88842;-65
2021/12/28 00:25:59;;;;;;;27.17;15.10;;;-2.20;99.90;-2.60;99384.00;;;;5055719;27;87566;-66
2021/12/28 00:28:26;;;;;;;29.17;15.37;;;-2.20;99.90;-2.60;99389.00;;;;5032531;27;87858;-66
2021/12/28 00:30:54;;;;;;;26.73;15.23;;;-2.20;99.90;-2.60;99392.00;;;;5034882;27;88789;-65
2021/12/28 00:33:23;;;;;;;26.17;14.67;;;-2.20;99.90;-2.60;99389.00;;;;5034421;27;116969;-66
2021/12/28 00:35:50;;;;;;;22.37;14.57;;;-2.20;99.90;-2.60;99381.00;;;;5042562;27;87588;-65
2021/12/28 00:38:22;;;;;;;25.80;14.50;;;-2.20;99.90;-2.60;99384.00;;;;5048792;27;93818;-66
2021/12/28 00:40:56;;;;;;;16.77;11.53;;;-2.20;99.90;-2.60;99395.00;;;;5040589;27;88154;-65
2021/12/28 00:43:22;;;;;;;20.43;13.33;;;-2.10;99.90;-2.60;99382.00;;;;5053021;27;99621;-65
2021/12/28 00:45:48;;;;;;;25.23;12.57;;;-2.20;99.90;-2.60;99376.00;;;;5034277;27;88624;-65
2021/12/28 00:48:15;;;;;;;18.33;14.43;;;-2.20;99.90;-2.60;99386.00;;;;5035046;27;87706;-65
2021/12/28 00:50:41;;;;;;;26.23;14.07;;;-2.20;99.90;-2.60;99383.00;;;;5036787;27;104415;-65
2021/12/28 00:53:07;;;;;;;20.90;14.30;;;-1.30;99.90;-2.60;99390.00;;;;5054403;27;88551;-65
2021/12/28 00:55:34;;;;;;;25.23;15.37;;;-2.60;99.90;-2.60;99381.00;;;;5052189;27;97364;-65
2021/12/28 00:58:00;;;;;;;24.67;14.10;;;-2.10;99.90;-2.60;99386.00;;;;5035453;27;109061;-65
2021/12/28 01:00:34;;;;;;;20.37;14.23;;;-2.20;99.90;-2.60;99379.00;;;;5029865;27;88452;-65
2021/12/28 01:03:02;;;;;;;23.90;13.60;;;-2.10;99.90;-2.60;99390.00;;;;5038056;27;88543;-65
2021/12/28 01:05:28;;;;;;;21.07;13.13;;;-2.20;99.90;-2.60;99386.00;;;;5043027;27;87850;-65
2021/12/28 01:07:55;;;;;;;21.57;12.90;;;-2.20;99.90;-2.60;99379.00;;;;5045779;27;87573;-65
2021/12/28 01:10:30;;;;;;;22.83;13.37;;;-1.60;99.90;-2.60;99377.00;;;;5010576;27;88807;-65
2021/12/28 01:12:57;;;;;;;21.10;13.63;;;-2.00;99.90;-2.60;99389.00;;;;5037510;27;87724;-65
2021/12/28 01:15:28;;;;;;;25.67;13.50;;;-2.20;99.90;-2.60;99379.00;;;;5038749;27;87909;-65
2021/12/28 01:17:54;;;;;;;25.87;13.10;;;-2.30;99.90;-2.60;99382.00;;;;5038036;27;87632;-67
2021/12/28 01:20:20;;;;;;;22.43;12.47;;;-2.20;99.90;-2.60;99387.00;;;;5036448;27;101642;-65
2021/12/28 01:22:47;;;;;;;21.37;13.00;;;-2.20;99.90;-2.60;99375.00;;;;5056986;27;117649;-65
2021/12/28 01:25:15;;;;;;;23.90;12.60;;;-2.30;99.90;-2.60;99379.00;;;;5057786;27;87778;-65
2021/12/28 01:27:42;;;;;;;19.93;11.73;;;-2.20;99.90;-2.60;99390.00;;;;5058333;27;87176;-65
2021/12/28 01:30:10;;;;;;;19.23;11.50;;;-2.30;99.90;-2.60;99371.00;;;;5049109;27;87869;-65
2021/12/28 01:32:36;;;;;;;21.43;11.23;;;-2.20;99.90;-2.60;99368.00;;;;5039018;27;96720;-65
2021/12/28 01:35:06;;;;;;;24.40;13.27;;;-2.20;99.90;-2.60;99365.00;;;;5058294;27;88916;-65
2021/12/28 01:37:31;;;;;;;16.73;11.43;;;-2.20;99.90;-2.50;99360.00;;;;5058360;27;97193;-65
2021/12/28 01:39:57;;;;;;;19.73;12.53;;;-2.10;99.90;-2.50;99366.00;;;;5043457;27;118451;-65
2021/12/28 01:42:23;;;;;;;20.17;11.57;;;-2.00;99.90;-2.50;99351.00;;;;5036654;27;117486;-65
2021/12/28 01:44:48;;;;;;;25.40;11.80;;;-1.90;99.90;-2.40;99356.00;;;;5037626;27;88004;-65
2021/12/28 01:47:16;;;;;;;15.50;10.70;;;-2.10;99.90;-2.40;99352.00;;;;5037041;27;109018;-65
2021/12/28 01:49:43;;;;;;;18.40;11.17;;;-2.00;99.90;-2.30;99362.00;;;;5046443;27;88750;-65
2021/12/28 01:52:09;;;;;;;18.00;11.13;;;-2.00;99.90;-2.30;99361.00;;;;5037403;27;103649;-65
2021/12/28 01:54:35;;;;;;;16.17;11.27;;;-1.90;99.90;-2.30;99342.00;;;;5018405;27;99315;-65
2021/12/28 01:57:00;;;;;;;22.83;12.47;;;-1.90;99.90;-2.20;99354.00;;;;5036680;27;108257;-65
2021/12/28 01:59:26;;;;;;;21.47;11.07;;;-1.80;99.90;-2.20;99349.00;;;;5030346;27;118939;-65
2021/12/28 02:01:52;;;;;;;18.87;10.23;;;-1.30;99.90;-2.10;99351.00;;;;5033207;27;104687;-67
2021/12/28 02:04:22;;;;;;;16.23;10.20;;;-1.80;99.90;-2.10;99337.00;;;;5035467;27;114531;-65
2021/12/28 02:06:49;;;;;;;19.70;10.77;;;-1.70;99.90;-2.00;99331.00;;;;5039033;27;90586;-65
2021/12/28 02:09:15;;;;;;;14.57;9.87;;;-1.70;99.90;-2.00;99333.00;;;;5029672;27;93773;-65
2021/12/28 02:11:41;;;;;;;22.47;11.20;;;-1.60;99.90;-1.90;99340.00;;;;5033734;27;105196;-65
2021/12/28 02:14:08;;;;;;;21.17;11.40;;;-1.60;99.90;-1.80;99327.00;;;;5018006;27;87923;-65
2021/12/28 02:16:38;;;;;;;17.80;11.37;;;-1.50;99.90;-1.70;99329.00;;;;5047686;27;86812;-66
2021/12/28 02:19:05;;;;;;;20.93;11.20;;;-1.30;99.90;-1.60;99333.00;;;;5035958;27;87920;-65
2021/12/28 02:21:31;;;;;;;17.90;11.53;;;-1.30;99.90;-1.50;99321.00;;;;5049207;27;88299;-65
2021/12/28 02:24:05;;;;;;;17.70;10.17;;;-1.20;99.90;-1.40;99326.00;;;;5055876;27;88730;-65
2021/12/28 02:26:31;;;;;;;15.07;10.77;;;-1.10;99.90;-1.30;99319.00;;;;5057590;27;87952;-65
2021/12/28 02:28:57;;;;;;;16.67;10.03;;;-1.10;99.90;-1.20;99315.00;;;;5055281;27;104805;-66
2021/12/28 02:31:25;;;;;;;19.20;10.13;;;-0.90;99.90;-1.10;99318.00;;;;5050020;27;88304;-66
2021/12/28 02:33:51;;;;;;;17.93;10.00;;;-0.90;99.90;-1.00;99317.00;;;;5057281;27;87872;-66
2021/12/28 02:36:19;;;;;;;26.73;10.80;;;0.10;99.90;-0.90;99316.00;;;;5055672;27;87905;-65
2021/12/28 02:38:46;;;;;;;21.50;11.67;;;-0.60;99.90;-0.80;99315.00;;;;5056653;27;103424;-65
2021/12/28 02:41:14;;;;;;;17.67;9.93;;;-0.50;99.90;-0.70;99315.00;;;;5048253;27;106074;-66
2021/12/28 02:43:43;;;;;;;22.20;10.87;;;-0.40;99.90;-0.60;99308.00;;;;5035976;27;87674;-66
2021/12/28 02:46:09;;;;;;;15.90;10.67;;;-0.30;99.90;-0.50;99310.00;;;;5036753;27;87659;-66
2021/12/28 02:48:37;;;;;;;17.00;10.60;;;0.60;99.90;-0.40;99310.00;;;;5035361;27;89010;-66
2021/12/28 02:51:13;;;;;;;15.37;9.30;;;0.10;99.90;-0.40;99299.00;;;;5040483;27;89764;-66
2021/12/28 02:53:39;;;;;;;19.93;10.27;;;-0.10;99.90;-0.30;99298.00;;;;5031108;27;87700;-66
2021/12/28 02:56:07;;;;;;;17.37;9.93;;;-0.10;99.90;-0.30;99295.00;;;;5055581;27;88035;-66
2021/12/28 02:58:44;;;;;;;15.30;9.87;;;0.40;99.90;-0.30;99283.00;;;;5057521;27;88304;-66
2021/12/28 03:01:22;;;;;;;16.23;9.60;;;1.00;99.90;-0.30;99275.00;;;;5029109;27;104188;-66
2021/12/28 03:03:52;;;;;;;16.40;10.23;;;0.10;99.90;-0.20;99289.00;;;;5057633;27;87768;-66
2021/12/28 03:06:21;;;;;;;14.83;8.67;;;0.10;99.90;-0.20;99280.00;;;;5040637;27;95553;-66
2021/12/28 03:08:56;;;;;;;17.07;9.43;;;0.10;99.90;-0.10;99282.00;;;;5036855;27;87742;-67
2021/12/28 03:11:25;;;;;;;22.97;10.83;;;0.40;99.90;-0.10;99288.00;;;;5038064;27;104902;-65
2021/12/28 03:13:58;;;;;;;18.57;8.83;;;0.20;99.90;-0.10;99283.00;;;;5034860;27;96201;-66
2021/12/28 03:16:26;;;;;;;15.77;9.47;;;0.20;99.90;-0.10;99279.00;;;;5031751;27;96062;-66
2021/12/28 03:18:52;;;;;;;16.50;9.23;;;0.20;99.90;0.00;99288.00;;;;5036539;27;88528;-66
2021/12/28 03:21:20;;;;;;;17.70;9.87;;;0.30;99.90;0.00;99281.00;;;;5017211;27;89566;-66
2021/12/28 03:23:47;;;;;;;15.63;9.50;;;1.20;99.90;0.00;99276.00;;;;5036217;27;97025;-66
2021/12/28 03:26:14;;;;;;;15.70;8.93;;;1.20;99.90;0.10;99273.00;;;;5036145;27;97234;-67
2021/12/28 03:28:42;;;;;;;17.27;9.43;;;0.30;99.90;0.10;99272.00;;;;5036311;27;88742;-66
2021/12/28 03:31:15;;;;;;;24.33;10.83;;;0.30;99.90;0.10;99279.00;;;;5032715;27;88899;-67
2021/12/28 03:33:47;;;;;;;18.70;9.80;;;0.40;99.90;0.10;99271.00;;;;5035755;27;87657;-66
2021/12/28 03:36:14;;;;;;;16.00;10.37;;;0.40;99.90;0.20;99256.00;;;;5033548;27;87545;-66
2021/12/28 03:38:41;;;;;;;17.43;9.63;;;1.30;99.90;0.20;99260.00;;;;5030402;27;90543;-65
2021/12/28 03:41:09;;;;;;;17.83;11.00;;;0.60;99.90;0.20;99267.00;;;;5050237;27;89294;-66
2021/12/28 03:43:37;;;;;;;18.33;11.07;;;0.50;99.90;0.30;99268.00;;;;5055713;27;98163;-66
2021/12/28 03:46:05;;;;;;;22.53;11.37;;;1.40;99.90;0.30;99259.00;;;;5053097;27;87771;-66
2021/12/28 03:48:30;;;;;;;17.53;11.00;;;1.10;99.90;0.30;99261.00;;;;5048957;27;102741;-66
2021/12/28 03:50:56;;;;;;;17.10;9.37;;;1.60;99.90;0.40;99255.00;;;;5054705;27;117523;-67
2021/12/28 03:53:22;;;;;;;20.13;12.07;;;0.60;99.90;0.40;99254.00;;;;5055387;27;111304;-67
2021/12/28 03:55:48;;;;;;;19.70;10.63;;;0.60;99.90;0.40;99249.00;;;;5055066;27;108805;-66
2021/12/28 03:58:13;;;;;;;21.27;11.47;;;1.20;99.90;0.50;99249.00;;;;5045230;27;95978;-68
2021/12/28 04:00:47;;;;;;;24.03;12.70;;;1.50;99.90;0.50;99251.00;;;;5054553;27;117522;-68
2021/12/28 04:03:14;;;;;;;24.07;12.93;;;1.70;99.90;0.60;99250.00;;;;5035594;27;88821;-67
2021/12/28 04:05:44;;;;;;;23.27;13.53;;;0.90;99.90;0.70;99242.00;;;;5055830;27;87646;-66
2021/12/28 04:08:10;;;;;;;20.70;11.97;;;1.00;99.90;0.70;99243.00;;;;5046357;27;88928;-66
2021/12/28 04:10:51;;;;;;;19.10;11.80;;;1.00;99.90;0.80;99239.00;;;;5051602;27;93156;-66
2021/12/28 04:13:20;;;;;;;25.77;13.03;;;1.00;99.90;0.80;99229.00;;;;5035594;27;87705;-66
2021/12/28 04:15:46;;;;;;;23.10;12.83;;;1.10;99.90;0.80;99232.00;;;;5011103;27;87916;-66
2021/12/28 04:18:13;;;;;;;24.60;13.83;;;2.00;99.90;0.90;99220.00;;;;5030593;27;116743;-67
2021/12/28 04:20:39;;;;;;;28.70;13.53;;;1.20;99.90;0.90;99210.00;;;;5035229;27;88147;-67
2021/12/28 04:23:04;;;;;;;26.77;13.40;;;1.20;99.90;0.90;99215.00;;;;5035134;27;87883;-66
2021/12/28 04:25:31;;;;;;;26.93;13.90;;;1.20;99.90;1.00;99213.00;;;;5043289;27;109910;-66
2021/12/28 04:27:57;;;;;;;24.43;13.47;;;1.30;99.90;1.00;99215.00;;;;5045782;27;89567;-67
2021/12/28 04:30:23;;;;;;;23.87;13.77;;;1.30;99.90;1.10;99235.00;;;;5053858;27;118443;-67
2021/12/28 04:32:49;;;;;;;29.47;15.07;;;2.10;99.90;1.10;99228.00;;;;5057219;27;87866;-67
2021/12/28 04:35:16;;;;;;;24.40;12.67;;;1.40;99.90;1.10;99216.00;;;;5056696;27;110036;-67
2021/12/28 04:37:42;;;;;;;21.83;13.50;;;1.40;99.90;1.20;99226.00;;;;5058713;27;88954;-66
2021/12/28 04:40:11;;;;;;;26.70;14.47;;;1.50;99.90;1.20;99210.00;;;;5049886;27;88534;-66
2021/12/28 04:42:39;;;;;;;24.13;13.03;;;1.50;99.90;1.20;99214.00;;;;5058838;27;87673;-67
2021/12/28 04:45:08;;;;;;;25.23;13.17;;;2.00;99.90;1.20;99203.00;;;;5059305;27;87026;-67
2021/12/28 04:47:34;;;;;;;27.00;15.13;;;1.50;99.90;1.30;99198.00;;;;5057239;27;88169;-67
2021/12/28 04:49:59;;;;;;;25.53;13.23;;;2.00;99.90;1.30;99200.00;;;;5049558;27;88003;-66
2021/12/28 04:52:25;;;;;;;27.07;14.33;;;2.50;99.90;1.30;99207.00;;;;5057405;27;93620;-67
2021/12/28 04:54:51;;;;;;;23.27;12.60;;;1.50;99.90;1.30;99210.00;;;;5045984;27;87591;-68
2021/12/28 04:57:17;;;;;;;32.33;15.63;;;1.80;99.90;1.30;99210.00;;;;5057419;27;117567;-66
2021/12/28 04:59:43;;;;;;;28.33;14.93;;;1.90;99.90;1.30;99216.00;;;;5058611;27;87948;-67
2021/12/28 05:02:09;;;;;;;25.43;14.07;;;2.40;99.90;1.30;99211.00;;;;5049734;27;87545;-70
2021/12/28 05:04:34;;;;;;;26.73;14.37;;;1.60;99.90;1.30;99214.00;;;;5058815;27;87932;-68
2021/12/28 05:07:00;;;;;;;30.77;15.50;;;2.60;99.90;1.30;99215.00;;;;5057320;27;105782;-69
2021/12/28 05:09:26;;;;;;;26.77;14.03;;;1.70;99.90;1.30;99212.00;;;;5057400;27;119739;-68
2021/12/28 05:11:51;;;;;;;30.23;14.87;;;1.60;99.90;1.30;99212.00;;;;5048442;27;113230;-69
2021/12/28 05:14:18;;;;;;;24.60;13.87;;;2.20;99.90;1.20;99206.00;;;;5058113;27;87907;-69
2021/12/28 05:16:44;;;;;;;29.40;13.10;;;1.60;99.90;1.20;99201.00;;;;5038198;27;88804;-69
2021/12/28 05:19:11;;;;;;;27.57;13.13;;;1.50;99.90;1.20;99205.00;;;;5038373;27;88075;-69
2021/12/28 05:21:38;;;;;;;33.97;14.77;;;1.40;99.90;1.20;99214.00;;;;5023573;27;89101;-69
2021/12/28 05:24:05;;;;;;;24.03;13.33;;;1.60;99.90;1.20;99202.00;;;;5035634;27;96519;-71
2021/12/28 05:26:31;;;;;;;27.13;13.10;;;1.50;99.90;1.10;99210.00;;;;5036882;27;103465;-69
2021/12/28 05:28:57;;;;;;;23.70;13.00;;;1.50;99.90;1.10;99207.00;;;;5036718;27;117597;-68
2021/12/28 05:31:25;;;;;;;18.17;12.90;;;1.40;99.90;1.10;99206.00;;;;5029519;27;87724;-69
2021/12/28 05:33:52;;;;;;;25.27;13.47;;;1.40;99.90;1.10;99192.00;;;;5037891;27;87059;-68
2021/12/28 05:36:19;;;;;;;22.77;12.60;;;1.30;99.90;1.00;99204.00;;;;5039170;27;88173;-69
2021/12/28 05:38:45;;;;;;;22.57;13.07;;;1.20;99.90;1.00;99186.00;;;;5037682;27;87821;-67
2021/12/28 05:41:11;;;;;;;21.63;12.27;;;1.30;99.90;1.00;99195.00;;;;5027500;27;112852;-66
2021/12/28 05:43:36;;;;;;;24.97;13.87;;;1.30;99.90;1.00;99195.00;;;;5043144;27;95928;-67
2021/12/28 05:46:02;;;;;;;23.13;12.17;;;2.10;99.90;1.00;99206.00;;;;5057224;27;94963;-68
2021/12/28 05:48:28;;;;;;;25.33;12.67;;;1.20;99.90;1.00;99214.00;;;;5047421;27;89212;-69
2021/12/28 05:50:54;;;;;;;22.73;13.13;;;1.30;99.90;0.90;99207.00;;;;5038378;27;87778;-68
2021/12/28 05:53:20;;;;;;;21.20;13.50;;;1.20;99.90;0.90;99198.00;;;;5037470;27;87498;-68
2021/12/28 05:55:46;;;;;;;23.17;12.17;;;1.30;99.90;0.90;99197.00;;;;5036338;27;116204;-69
2021/12/28 05:58:13;;;;;;;27.27;14.10;;;1.20;99.90;0.90;99190.00;;;;5027928;27;117724;-70
2021/12/28 06:00:39;;;;;;;24.07;12.37;;;1.80;99.90;0.90;99170.00;;;;5037071;27;114249;-69
2021/12/28 06:03:05;;;;;;;19.00;12.27;;;1.20;99.90;0.90;99166.00;;;;5036312;27;91253;-69
2021/12/28 06:05:31;;;;;;;24.33;13.27;;;2.20;99.90;0.90;99164.00;;;;5000976;27;93941;-67
2021/12/28 06:07:57;;;;;;;24.70;13.57;;;1.20;99.90;0.90;99171.00;;;;5028385;27;88942;-67
2021/12/28 06:10:23;;;;;;;16.13;12.03;;;1.10;99.90;0.90;99164.00;;;;5054384;27;113958;-68
2021/12/28 06:12:49;;;;;;;27.10;12.67;;;1.10;99.90;0.90;99166.00;;;;5055633;27;104599;-68
2021/12/28 06:15:15;;;;;;;28.13;11.93;;;1.20;99.90;0.90;99164.00;;;;5057253;27;89368;-67
2021/12/28 06:17:41;;;;;;;25.43;13.63;;;1.20;99.90;0.90;99163.00;;;;5045609;27;104113;-69
2021/12/28 06:20:08;;;;;;;27.23;12.23;;;1.10;99.90;0.90;99163.00;;;;5029729;27;113325;-67
2021/12/28 06:22:33;;;;;;;20.20;11.77;;;1.10;99.90;0.90;99164.00;;;;5057110;27;93876;-68
2021/12/28 06:24:59;;;;;;;22.87;12.40;;;1.10;99.90;0.90;99167.00;;;;5036498;27;116785;-68
2021/12/28 06:27:25;;;;;;;20.27;12.67;;;1.10;99.90;0.90;99162.00;;;;5055925;27;116330;-68
2021/12/28 06:29:50;;;;;;;24.10;12.87;;;1.20;99.90;0.90;99166.00;;;;5047165;27;113503;-68
2021/12/28 06:32:16;;;;;;;21.23;12.13;;;0.40;99.90;0.90;99169.00;;;;5026815;27;106506;-67
2021/12/28 06:34:42;;;;;;;21.23;11.77;;;1.20;99.90;0.90;99160.00;;;;5024521;27;117848;-67
2021/12/28 06:37:08;;;;;;;22.27;11.13;;;1.20;99.90;0.90;99163.00;;;;5016635;27;116731;-68
2021/12/28 06:39:34;;;;;;;20.47;11.83;;;1.20;99.90;0.90;99167.00;;;;5036468;27;87686;-67
2021/12/28 06:42:00;;;;;;;19.13;11.60;;;1.20;99.90;0.90;99174.00;;;;5036755;27;87778;-66
2021/12/28 06:44:26;;;;;;;18.87;11.47;;;1.20;99.90;0.90;99170.00;;;;5034963;27;117119;-68
2021/12/28 06:46:52;;;;;;;23.93;11.47;;;1.20;99.90;0.90;99166.00;;;;5053063;27;118376;-66
2021/12/28 06:49:18;;;;;;;18.93;10.83;;;2.10;99.90;0.90;99174.00;;;;5052506;27;87552;-67
2021/12/28 06:51:44;;;;;;;18.13;11.63;;;1.70;99.90;0.90;99170.00;;;;5050967;27;87767;-67
2021/12/28 06:54:10;;;;;;;17.80;11.63;;;1.20;99.90;0.90;99173.00;;;;5048146;27;89862;-68
2021/12/28 06:56:36;;;;;;;23.17;12.13;;;1.20;99.90;1.00;99169.00;;;;5035323;27;89790;-68
2021/12/28 06:59:03;;;;;;;21.13;11.57;;;1.20;99.90;1.00;99168.00;;;;5033985;27;87711;-67
2021/12/28 07:01:28;;;;;;;19.73;11.10;;;1.30;99.90;1.00;99168.00;;;;5030057;27;93643;-67
2021/12/28 07:03:54;;;;;;;20.70;10.17;;;1.20;99.90;1.00;99165.00;;;;5043209;27;117326;-68
2021/12/28 07:06:21;;;;;;;26.97;13.07;;;1.30;99.90;1.00;99159.00;;;;5048617;27;103612;-70
2021/12/28 07:08:50;;;;;;;20.40;11.10;;;1.70;99.90;1.00;99147.00;;;;5037357;27;87651;-68
2021/12/28 07:11:16;;;;;;;20.80;11.63;;;1.30;99.90;1.00;99152.00;;;;5032443;27;109195;-68
2021/12/28 07:13:43;;;;;;;21.13;10.87;;;1.20;99.90;1.00;99147.00;;;;5048354;27;88471;-67
2021/12/28 07:16:08;;;;;;;18.33;11.13;;;1.90;99.90;1.00;99142.00;;;;5035076;27;117430;-67
2021/12/28 07:18:34;;;;;;;18.20;10.77;;;1.40;99.90;1.10;99154.00;;;;5041240;27;99911;-67
2021/12/28 07:21:02;;;;;;;20.83;10.40;;;1.30;99.90;1.10;99143.00;;;;5036080;27;110199;-68
2021/12/28 07:23:29;;;;;;;22.17;10.60;;;1.40;99.90;1.10;99142.00;;;;5034413;27;88121;-68
2021/12/28 07:25:55;;;;;;;19.27;10.87;;;2.00;99.90;1.10;99146.00;;;;5049776;27;89018;-67
2021/12/28 07:28:22;;;;;;;19.77;10.67;;;1.40;99.90;1.10;99157.00;;;;5052999;27;87734;-67
2021/12/28 07:30:48;;;;;;;17.13;11.90;;;2.00;99.90;1.10;99149.00;;;;5047172;27;87723;-68
2021/12/28 07:33:14;;;;;;;16.10;9.90;;;2.30;99.90;1.20;99145.00;;;;5052965;27;89251;-68
2021/12/28 07:35:40;;;;;;;21.10;11.13;;;2.30;99.90;1.20;99141.00;;;;5046057;27;88338;-67
2021/12/28 07:38:06;;;;;;;17.53;11.27;;;2.10;99.90;1.10;99146.00;;;;5051950;27;111446;-67
2021/12/28 07:40:31;;;;;;;16.20;10.60;;;1.40;99.90;1.20;99146.00;;;;5049156;27;87700;-68
2021/12/28 07:42:57;;;;;;;23.83;12.10;;;2.00;99.90;1.20;99134.00;;;;5047947;27;94674;-67
2021/12/28 07:45:23;;;;;;;21.73;12.23;;;1.80;99.90;1.20;99139.00;;;;5052944;27;89561;-67
2021/12/28 07:47:49;;;;;;;30.83;15.43;;;1.40;99.90;1.20;99136.00;;;;5050608;27;88237;-66
2021/12/28 07:50:18;;;;;;;23.30;11.17;;;1.50;99.90;1.20;99129.00;;;;5048209;27;108476;-67
2021/12/28 07:52:45;;;;;;;26.23;12.30;;;1.40;99.90;1.20;99131.00;;;;5026785;27;89617;-67
2021/12/28 07:55:12;;;;;;;18.37;11.70;;;2.40;99.90;1.20;99130.00;;;;5032857;27;89200;-67
2021/12/28 07:57:39;;;;;;;30.70;15.10;;;1.70;99.90;1.20;99131.00;;;;5052835;27;87681;-67
2021/12/28 08:00:15;;;;;;;26.73;13.33;;;2.10;99.90;1.20;99126.00;;;;5048571;27;95675;-68
2021/12/28 08:02:43;;;;;;;25.17;13.30;;;1.60;99.90;1.20;99132.00;;;;5039425;27;88274;-68
2021/12/28 08:05:13;;;;;;;24.33;12.23;;;1.50;99.90;1.30;99126.00;;;;5048129;27;88761;-69
2021/12/28 08:07:39;;;;;;;35.43;16.47;;;1.60;99.90;1.30;99118.00;;;;5053345;27;88612;-68
2021/12/28 08:10:06;;;;;;;31.27;17.40;;;2.10;99.90;1.30;99112.00;;;;5053249;27;87974;-68
2021/12/28 08:12:32;;;;;;;29.50;15.53;;;1.50;99.90;1.30;99108.00;;;;5046294;27;104715;-68
2021/12/28 08:14:58;;;;;;;22.30;13.73;;;1.60;99.90;1.40;99114.00;;;;5048860;27;88616;-68
2021/12/28 08:17:26;;;;;;;27.90;11.57;;;2.10;99.90;1.40;99114.00;;;;5050925;27;87980;-67
2021/12/28 08:19:52;;;;;;;17.90;11.33;;;1.70;99.90;1.50;99110.00;;;;5046299;27;87751;-67
2021/12/28 08:22:17;;;;;;;19.93;10.67;;;2.20;99.90;1.50;99109.00;;;;5054507;27;117296;-67
2021/12/28 08:24:43;;;;;;;19.67;10.23;;;1.70;99.90;1.50;99116.00;;;;5046802;27;117269;-68
2021/12/28 08:27:09;;;;;;;17.13;10.27;;;1.70;99.90;1.50;99117.00;;;;5034709;27;87827;-68
2021/12/28 08:29:35;;;;;;;16.30;10.17;;;1.70;99.90;1.50;99098.00;;;;5049198;27;97207;-69
2021/12/28 08:32:00;;;;;;;17.27;9.63;;;1.70;99.90;1.50;99114.00;;;;5053509;27;117765;-67
2021/12/28 08:34:26;;;;;;;22.70;10.40;;;1.90;99.90;1.50;99113.00;;;;5047311;27;102063;-68
2021/12/28 08:36:52;;;;;;;17.13;9.63;;;1.70;99.90;1.50;99105.00;;;;5052996;27;87960;-68
2021/12/28 08:39:17;;;;;;;19.33;10.03;;;1.70;99.90;1.50;99103.00;;;;5053776;27;87776;-67
2021/12/28 08:41:43;;;;;;;20.10;10.43;;;1.80;99.90;1.60;99097.00;;;;5011694;27;117291;-67
2021/12/28 08:44:09;;;;;;;27.87;13.80;;;1.80;99.90;1.60;99089.00;;;;5051401;27;116546;-67
2021/12/28 08:46:35;;;;;;;20.63;13.17;;;2.50;99.90;1.70;99098.00;;;;5052305;27;111869;-68
2021/12/28 08:49:01;;;;;;;17.10;10.07;;;1.90;99.90;1.70;99091.00;;;;5052618;27;86973;-67
2021/12/28 08:51:27;;;;;;;13.60;9.60;;;2.10;99.90;1.70;99089.00;;;;5048436;27;116329;-68
2021/12/28 08:53:53;;;;;;;15.77;9.50;;;2.70;99.90;1.80;99088.00;;;;5050735;27;87895;-68
2021/12/28 08:56:18;;;;;;;15.27;8.90;;;2.00;99.90;1.80;99097.00;;;;5052727;27;88709;-67
2021/12/28 08:58:44;;;;;;;15.70;9.07;;;2.70;99.90;1.80;99107.00;;;;5055454;27;110216;-67
2021/12/28 09:01:10;;;;;;;16.13;9.23;;;3.00;99.90;1.90;99087.00;;;;5037814;27;90344;-67
2021/12/28 09:03:36;;;;;;;13.00;8.33;;;2.80;99.90;2.00;99101.00;;;;5033908;27;103234;-67
2021/12/28 09:06:02;;;;;;;17.80;9.90;;;3.10;99.90;2.00;99100.00;;;;5038899;27;99779;-67
2021/12/28 09:08:28;;;;;;;16.13;9.20;;;2.30;99.90;2.10;99086.00;;;;5049202;27;87831;-66
2021/12/28 09:10:54;;;;;;;15.47;8.93;;;2.90;99.90;2.10;99098.00;;;;5025671;27;91529;-66
2021/12/28 09:13:20;;;;;;;17.60;8.80;;;2.40;99.90;2.20;99090.00;;;;5044426;27;116310;-67
2021/12/28 09:15:46;;;;;;;16.57;9.17;;;3.30;99.90;2.20;99095.00;;;;5046873;27;105269;-67
2021/12/28 09:18:12;;;;;;;19.43;9.33;;;2.50;99.90;2.20;99096.00;;;;5047413;27;92122;-68
2021/12/28 09:20:38;;;;;;;17.80;9.87;;;2.50;99.90;2.30;99104.00;;;;5042223;27;88658;-68
2021/12/28 09:23:04;;;;;;;15.33;7.63;;;2.90;99.90;2.30;99094.00;;;;5053548;27;89601;-68
2021/12/28 09:25:30;;;;;;;12.37;6.93;;;2.70;99.90;2.30;99089.00;;;;5041844;27;87929;-68
2021/12/28 09:27:56;;;;;;;15.70;7.50;;;2.60;99.90;2.40;99090.00;;;;5047103;27;93567;-68
2021/12/28 09:30:21;;;;;;;13.23;8.60;;;2.50;99.90;2.40;99084.00;;;;5053371;27;107400;-67
2021/12/28 09:32:48;;;;;;;12.20;7.67;;;3.40;99.90;2.50;99089.00;;;;5020063;27;88146;-68
2021/12/28 09:35:15;;;;;;;15.27;8.83;;;2.60;99.90;2.50;99093.00;;;;5056031;27;91086;-67
2021/12/28 09:37:41;;;;;;;12.07;7.80;;;2.70;99.90;2.50;99077.00;;;;5046061;27;87136;-68
2021/12/28 09:40:10;;;;;;;12.13;6.87;;;3.60;99.90;2.50;99076.00;;;;5054747;27;100593;-67
2021/12/28 09:42:37;;;;;;;17.40;8.97;;;2.80;99.90;2.60;99093.00;;;;5044792;27;88548;-69
2021/12/28 09:45:06;;;;;;;16.67;7.13;;;2.80;99.90;2.60;99081.00;;;;5050056;27;88797;-68
2021/12/28 09:47:33;;;;;;;10.97;7.03;;;2.90;99.90;2.60;99088.00;;;;5049015;27;87848;-67
2021/12/28 09:49:59;;;;;;;13.93;7.97;;;2.80;99.90;2.70;99097.00;;;;5045536;27;88621;-67
2021/12/28 09:52:25;;;;;;;14.00;8.40;;;2.90;99.90;2.70;99085.00;;;;5053665;27;117888;-68
2021/12/28 09:54:51;;;;;;;9.97;6.63;;;2.90;99.90;2.70;99088.00;;;;5052523;27;88028;-68
2021/12/28 09:57:18;;;;;;;15.60;7.47;;;3.00;99.90;2.80;99086.00;;;;5029712;27;91617;-67
2021/12/28 09:59:46;;;;;;;14.73;7.33;;;3.20;99.90;2.80;99092.00;;;;5050394;27;89354;-67
2021/12/28 10:02:13;;;;;;;11.87;6.93;;;3.00;99.90;2.90;99079.00;;;;5041656;27;106657;-68
2021/12/28 10:05:04;;;;;;;12.17;7.83;;;3.00;99.90;3.00;99072.00;;;;5055335;27;87797;-68
2021/12/28 10:07:34;;;;;;;13.73;6.97;;;3.20;99.90;3.20;99088.00;;;;5005850;27;87977;-68
2021/12/28 10:10:07;;;;;;;15.03;9.50;;;3.30;99.90;3.30;99075.00;;;;5039685;27;89405;-69
2021/12/28 10:12:39;;;;;;;12.77;7.13;;;3.50;99.90;3.30;99086.00;;;;5037715;27;89006;-68
2021/12/28 10:15:17;;;;;;;12.30;8.03;;;3.50;99.90;3.40;99072.00;;;;5045919;27;87906;-68
2021/12/28 10:17:49;;;;;;;12.63;8.30;;;3.60;99.90;3.50;99068.00;;;;5047136;27;87855;-68
2021/12/28 10:20:22;;;;;;;15.47;8.00;;;3.70;99.90;3.50;99057.00;;;;5042995;27;87859;-68
2021/12/28 10:22:56;;;;;;;16.70;8.47;;;3.20;99.90;3.60;99056.00;;;;5053986;27;87997;-68
2021/12/28 10:25:42;;;;;;;14.40;7.93;;;3.80;99.90;3.60;99059.00;;;;5046755;27;87686;-68
2021/12/28 10:28:17;;;;;;;9.87;5.47;;;3.80;99.90;3.60;99058.00;;;;5048338;27;87230;-69
2021/12/28 10:30:57;;;;;;;10.83;7.07;;;3.80;99.90;3.70;99060.00;;;;5053629;27;88098;-69
2021/12/28 10:33:27;;;;;;;9.50;6.97;;;3.90;99.90;3.70;99060.00;;;;5047581;27;88498;-69
2021/12/28 10:36:04;;;;;;;9.07;6.20;;;4.10;99.90;3.70;99057.00;;;;5030024;27;88952;-69
2021/12/28 10:38:34;;;;;;;15.40;7.63;;;4.00;99.90;3.80;99047.00;;;;5045993;27;87658;-69
2021/12/28 10:41:10;;;;;;;10.23;5.70;;;4.00;99.90;3.70;99044.00;;;;5051922;27;88223;-68
2021/12/28 10:43:41;;;;;;;11.57;7.30;;;4.00;99.90;3.80;99055.00;;;;5025097;27;87977;-68
2021/12/28 10:46:16;;;;;;;12.80;7.30;;;4.00;99.90;3.80;99032.00;;;;5034344;27;88364;-70
2021/12/28 10:48:48;;;;;;;13.90;6.83;;;4.00;99.90;3.90;99027.00;;;;5042826;27;87648;-67
2021/12/28 10:51:23;;;;;;;15.00;7.77;;;4.10;99.90;3.90;99017.00;;;;5042896;27;89182;-68
2021/12/28 10:56:51;;;;;;;12.47;7.17;;;4.20;99.90;4.20;99029.00;;;;5026772;27;88013;-68